Time;durP1;ratioP1;P1;durP2;ratioP2;P2;SDS_P1;SDS_P2;PMS_P1;PMS_P2;Temp;Humidity;BMP_temperature;BMP_pressure;BME280_temperature;BME280_humidity;BME280_pressure;Samples;Min_cycle;Max_cycle;Signal;HPM_P1;HPM_P2
2022/06/18 00:01:51;;;;;;;0.60;0.57;;;;;;;20.69;100.00;95501.34;5092938;28;20420;-68
2022/06/18 00:04:22;;;;;;;0.43;0.30;;;;;;;20.85;100.00;95488.03;5092838;28;20456;-68
2022/06/18 00:06:54;;;;;;;0.40;0.30;;;;;;;20.85;100.00;95486.16;5091742;28;20424;-68
2022/06/18 00:09:27;;;;;;;0.50;0.43;;;;;;;21.02;100.00;95490.63;5092435;28;20424;-67
2022/06/18 00:14:46;;;;;;;0.50;0.30;;;;;;;20.48;100.00;95424.34;5092587;28;20452;-68
2022/06/18 00:17:19;;;;;;;0.50;0.30;;;;;;;20.69;100.00;95460.16;5092506;28;20836;-68
2022/06/18 00:19:50;;;;;;;1.97;0.90;;;;;;;20.94;100.00;95486.09;5092431;28;20433;-68
2022/06/18 00:22:21;;;;;;;0.57;0.57;;;;;;;20.68;100.00;95445.09;5092368;28;20424;-68
2022/06/18 00:24:52;;;;;;;0.40;0.30;;;;;;;20.72;100.00;95489.13;5091520;28;20513;-68
2022/06/18 00:27:25;;;;;;;0.50;0.43;;;;;;;20.85;100.00;95488.03;5093515;28;20516;-69
2022/06/18 00:29:53;;;;;;;0.50;0.40;;;;;;;20.56;100.00;95443.13;5092780;28;20497;-69
2022/06/18 00:32:21;;;;;;;0.50;0.33;;;;;;;20.80;100.00;95483.66;5091918;28;20511;-68
2022/06/18 00:34:50;;;;;;;0.40;0.30;;;;;;;20.66;100.00;95466.97;5092482;28;20451;-68
2022/06/18 00:37:19;;;;;;;0.50;0.40;;;;;;;20.86;100.00;95481.56;5092277;28;20424;-68
2022/06/18 00:39:52;;;;;;;0.70;0.50;;;;;;;20.92;100.00;95471.38;5092187;28;20485;-68
2022/06/18 00:42:42;;;;;;;0.93;0.80;;;;;;;20.10;100.00;95398.31;5091532;28;20452;-68
2022/06/18 00:45:32;;;;;;;0.73;0.50;;;;;;;20.00;100.00;95484.78;5085915;28;20965;-69
2022/06/18 00:48:18;;;;;;;0.60;0.60;;;;;;;19.74;100.00;95464.50;5092265;28;20816;-69
2022/06/18 00:50:52;;;;;;;0.60;0.60;;;;;;;19.99;100.00;95487.78;5091779;28;20472;-69
2022/06/18 00:53:24;;;;;;;0.40;0.30;;;;;;;20.35;100.00;95484.63;5092006;28;20482;-69
2022/06/18 00:56:04;;;;;;;0.60;0.60;;;;;;;20.47;100.00;95466.63;5092092;28;21047;-68
2022/06/18 00:58:37;;;;;;;0.63;0.60;;;;;;;20.55;100.00;95473.06;5091960;28;20424;-69
2022/06/18 01:01:37;;;;;;;0.40;0.40;;;;;;;20.60;100.00;95468.28;5091217;28;20987;-68
2022/06/18 01:04:25;;;;;;;0.50;0.40;;;;;;;20.33;100.00;95462.63;5090833;28;20506;-69
2022/06/18 01:07:01;;;;;;;0.50;0.50;;;;;;;20.44;100.00;95461.91;5093534;28;20455;-69
2022/06/18 01:09:30;;;;;;;0.40;0.30;;;;;;;19.96;100.00;95403.13;5093126;28;20424;-69
2022/06/18 01:12:00;;;;;;;1.37;1.27;;;;;;;20.42;100.00;95452.56;5093411;28;20431;-69
2022/06/18 01:14:48;;;;;;;0.60;0.60;;;;;;;19.55;100.00;95300.91;5092577;28;20437;-69
2022/06/18 01:17:17;;;;;;;0.67;0.40;;;;;;;20.68;100.00;95450.47;5093605;28;20515;-70
2022/06/18 01:19:50;;;;;;;0.63;0.63;;;;;;;20.48;100.00;95445.88;5092362;28;20782;-70
2022/06/18 01:22:33;;;;;;;0.50;0.30;;;;;;;20.52;100.00;95452.97;5091223;28;20446;-69
2022/06/18 01:25:06;;;;;;;0.50;0.30;;;;;;;20.36;100.00;95443.13;5091680;28;20460;-69
2022/06/18 01:27:36;;;;;;;0.60;0.60;;;;;;;20.23;100.00;95418.84;5091440;28;20871;-70
2022/06/18 01:30:21;;;;;;;0.60;0.50;;;;;;;20.54;100.00;95445.34;5091152;28;20460;-70
2022/06/18 01:32:52;;;;;;;0.50;0.30;;;;;;;20.51;100.00;95456.00;5090779;28;20585;-70
2022/06/18 01:35:22;;;;;;;0.50;0.40;;;;;;;20.56;100.00;95447.72;5091217;28;20448;-70
2022/06/18 01:37:51;;;;;;;0.57;0.57;;;;;;;20.32;100.00;95432.22;5090403;28;20964;-70
2022/06/18 01:40:28;;;;;;;0.50;0.30;;;;;;;20.54;100.00;95445.34;5091802;28;20460;-70
2022/06/18 01:43:01;;;;;;;0.50;0.30;;;;;;;20.46;100.00;95448.13;5091809;28;20507;-70
2022/06/18 01:45:33;;;;;;;0.50;0.50;;;;;;;20.01;100.00;95380.66;5090476;28;20503;-69
2022/06/18 01:48:07;;;;;;;0.53;0.43;;;;;;;20.40;100.00;95438.66;5090211;28;21050;-69
2022/06/18 01:50:41;;;;;;;0.50;0.30;;;;;;;20.39;100.00;95445.94;5091936;28;20471;-69
2022/06/18 01:53:18;;;;;;;0.40;0.40;;;;;;;20.36;100.00;95446.63;5095259;28;20464;-69
2022/06/18 01:55:53;;;;;;;0.80;0.60;;;;;;;20.30;100.00;95444.44;5095438;28;20481;-69
2022/06/18 01:58:26;;;;;;;0.63;0.50;;;;;;;20.37;100.00;95437.41;5095143;28;20423;-69
2022/06/18 02:00:59;;;;;;;0.97;0.73;;;;;;;20.18;100.00;95413.63;5094095;28;20420;-69
2022/06/18 02:03:27;;;;;;;0.60;0.40;;;;;;;20.35;100.00;95445.03;5094032;28;20448;-69
2022/06/18 02:05:56;;;;;;;0.77;0.60;;;;;;;20.30;100.00;95444.44;5094967;28;20464;-69
2022/06/18 02:08:26;;;;;;;0.60;0.60;;;;;;;20.34;100.00;95448.06;5095237;28;20504;-69
2022/06/18 02:11:00;;;;;;;1.73;0.50;;;;;;;19.99;100.00;95434.78;5094981;28;20933;-69
2022/06/18 02:13:35;;;;;;;0.70;0.70;;;;;;;19.97;100.00;95453.16;5095026;28;20471;-69
2022/06/18 02:16:10;;;;;;;0.50;0.40;;;;;;;19.73;100.00;95442.22;5094544;28;20451;-68
2022/06/18 02:18:39;;;;;;;0.67;0.50;;;;;;;19.76;100.00;95448.84;5093523;28;20424;-69
2022/06/18 02:24:30;;;;;;;0.70;0.60;;;;;;;19.71;100.00;95414.06;5094638;28;20433;-68
2022/06/18 02:27:00;;;;;;;5.40;0.63;;;;;;;19.81;100.00;95446.72;5094956;28;20424;-69
2022/06/18 02:29:33;;;;;;;0.40;0.30;;;;;;;19.95;100.00;95460.75;5093849;28;20894;-69
2022/06/18 02:32:23;;;;;;;0.40;0.30;;;;;;;19.82;100.00;95461.78;5093206;28;20511;-68
2022/06/18 02:34:52;;;;;;;0.53;0.43;;;;;;;19.40;100.00;95423.22;5094437;28;20523;-68
2022/06/18 02:37:33;;;;;;;0.40;0.40;;;;;;;19.95;100.00;95460.75;5095588;28;20425;-68
2022/06/18 02:40:03;;;;;;;0.40;0.30;;;;;;;19.94;100.00;95448.41;5096629;28;20485;-68
2022/06/18 02:42:36;;;;;;;0.50;0.30;;;;;;;19.78;100.00;95423.19;5094597;28;20517;-68
2022/06/18 02:45:06;;;;;;;0.40;0.30;;;;;;;19.39;100.00;95431.56;5094179;28;20490;-68
2022/06/18 02:47:36;;;;;;;0.53;0.50;;;;;;;19.83;100.00;95459.88;5093569;28;20459;-68
2022/06/18 02:50:07;;;;;;;0.50;0.30;;;;;;;19.98;100.00;95464.69;5094192;28;20513;-68
2022/06/18 02:52:38;;;;;;;0.60;0.40;;;;;;;19.93;100.00;95444.16;5094190;28;21138;-68
2022/06/18 02:55:32;;;;;;;0.60;0.57;;;;;;;20.09;100.00;95466.69;5093978;28;20476;-68
2022/06/18 02:58:07;;;;;;;0.50;0.30;;;;;;;20.16;100.00;95469.66;5093970;28;20822;-68
2022/06/18 03:00:38;;;;;;;0.50;0.40;;;;;;;20.11;100.00;95477.16;5093857;28;20420;-68
2022/06/18 03:03:07;;;;;;;0.63;0.60;;;;;;;20.16;100.00;95475.03;5093177;28;20474;-68
2022/06/18 03:05:36;;;;;;;0.60;0.53;;;;;;;19.67;100.00;95470.38;5094082;28;20460;-68
2022/06/18 03:08:05;;;;;;;0.50;0.30;;;;;;;19.65;100.00;95464.53;5092724;28;20917;-68
2022/06/18 03:13:22;;;;;;;0.50;0.40;;;;;;;20.08;100.00;95485.88;5096901;28;20515;-65
2022/06/18 03:15:54;;;;;;;0.50;0.30;;;;;;;20.09;100.00;95482.84;5095320;28;20958;-65
2022/06/18 03:18:24;;;;;;;0.50;0.50;;;;;;;19.98;100.00;95480.84;5096552;28;20508;-65
2022/06/18 03:21:04;;;;;;;0.77;0.77;;;;;;;19.89;100.00;95483.56;5094974;28;20496;-65
2022/06/18 03:23:33;;;;;;;0.43;0.30;;;;;;;19.92;100.00;95474.84;5098819;28;20451;-65
2022/06/18 03:26:01;;;;;;;1.20;0.50;;;;;;;19.87;100.00;95480.41;5100163;28;20482;-65
2022/06/18 03:28:31;;;;;;;0.40;0.30;;;;;;;19.98;100.00;95475.47;5101494;28;20460;-66
2022/06/18 03:30:59;;;;;;;0.40;0.33;;;;;;;20.10;100.00;95467.47;5093637;28;20424;-67
2022/06/18 03:33:28;;;;;;;0.60;0.60;;;;;;;20.28;100.00;95463.59;5094072;28;20429;-67
2022/06/18 03:35:57;;;;;;;1.07;1.07;;;;;;;20.35;100.00;95463.88;5093679;28;20420;-68
2022/06/18 03:38:26;;;;;;;0.67;0.63;;;;;;;20.15;100.00;95460.00;5093075;28;20860;-69
2022/06/18 03:40:55;;;;;;;0.50;0.40;;;;;;;20.35;100.00;95457.69;5093149;28;20424;-68
2022/06/18 03:43:25;;;;;;;0.40;0.30;;;;;;;20.41;100.00;95461.78;5093250;28;20486;-68
2022/06/18 03:46:09;;;;;;;0.50;0.30;;;;;;;20.34;100.00;95459.59;5092833;28;20486;-68
2022/06/18 03:48:45;;;;;;;0.60;0.50;;;;;;;19.64;100.00;95341.94;5093140;28;20516;-68
2022/06/18 03:51:16;;;;;;;0.60;0.40;;;;;;;19.91;100.00;95379.09;5092315;28;20515;-68
2022/06/18 03:53:45;;;;;;;0.57;0.57;;;;;;;20.29;100.00;95454.41;5092815;28;20984;-70
2022/06/18 03:56:16;;;;;;;0.50;0.30;;;;;;;19.71;100.00;95459.78;5093003;28;20473;-67
2022/06/18 03:58:45;;;;;;;0.50;0.40;;;;;;;19.65;100.00;95461.84;5092941;28;20481;-60
2022/06/18 04:01:20;;;;;;;0.57;0.43;;;;;;;19.83;100.00;95468.75;5093188;28;20512;-60
2022/06/18 04:03:48;;;;;;;0.70;0.70;;;;;;;20.10;100.00;95457.50;5093143;28;20451;-60
2022/06/18 04:06:17;;;;;;;0.67;0.67;;;;;;;20.31;100.00;95459.47;5092946;28;20465;-60
2022/06/18 04:08:46;;;;;;;0.40;0.30;;;;;;;20.38;100.00;95459.75;5092788;28;20441;-60
2022/06/18 04:11:15;;;;;;;4.83;1.20;;;;;;;20.41;100.00;95459.88;5092665;28;20425;-62
2022/06/18 04:13:43;;;;;;;0.40;0.40;;;;;;;20.33;100.00;95470.69;5092137;28;20516;-60
2022/06/18 04:16:12;;;;;;;0.87;0.57;;;;;;;20.23;100.00;95471.88;5092932;28;20416;-60
2022/06/18 04:18:43;;;;;;;0.97;0.97;;;;;;;20.55;100.00;95478.47;5092648;28;20508;-68
2022/06/18 04:21:11;;;;;;;0.83;0.83;;;;;;;20.85;100.00;95477.25;5092199;28;20515;-64
2022/06/18 04:23:40;;;;;;;0.70;0.33;;;;;;;21.04;100.00;95469.50;5092527;28;20434;-67
2022/06/18 04:26:09;;;;;;;0.50;0.50;;;;;;;21.09;100.00;95465.84;5092564;28;20502;-68
2022/06/18 04:28:38;;;;;;;0.90;0.90;;;;;;;21.29;100.00;95470.41;5092502;28;20442;-68
2022/06/18 04:31:07;;;;;;;0.90;0.37;;;;;;;21.01;100.00;95443.22;5092759;28;20424;-69
2022/06/18 04:33:36;;;;;;;0.80;0.63;;;;;;;21.17;100.00;95478.47;5092661;28;20420;-67
2022/06/18 04:36:06;;;;;;;1.03;1.03;;;;;;;20.88;100.00;95418.13;5092400;28;20928;-68
2022/06/18 04:38:35;;;;;;;4.47;2.10;;;;;;;21.34;100.00;95476.38;5092431;28;20504;-67
2022/06/18 04:41:03;;;;;;;1.03;0.67;;;;;;;21.43;100.00;95471.66;5092751;28;20455;-67
2022/06/18 04:43:32;;;;;;;0.50;0.50;;;;;;;21.43;100.00;95470.88;5092306;28;20936;-67
2022/06/18 04:46:00;;;;;;;0.80;0.70;;;;;;;21.61;100.00;95472.25;5092324;28;20424;-67
2022/06/18 04:48:28;;;;;;;0.50;0.30;;;;;;;21.67;100.00;95473.63;5093999;28;20420;-69
2022/06/18 04:50:57;;;;;;;0.60;0.40;;;;;;;20.59;100.00;95296.28;5093584;28;20477;-66
2022/06/18 04:53:27;;;;;;;0.63;0.63;;;;;;;21.53;100.00;95435.38;5093355;28;20477;-66
2022/06/18 04:55:55;;;;;;;0.50;0.40;;;;;;;21.81;100.00;95486.78;5092414;28;20455;-66
2022/06/18 04:58:23;;;;;;;0.70;0.70;;;;;;;21.88;100.00;95482.44;5092133;28;20511;-66
2022/06/18 05:00:52;;;;;;;0.50;0.43;;;;;;;21.84;100.00;95475.31;5092347;28;20449;-66
2022/06/18 05:03:22;;;;;;;0.50;0.43;;;;;;;21.81;100.00;95481.38;5092061;28;20424;-65
2022/06/18 05:05:51;;;;;;;0.40;0.30;;;;;;;21.83;100.00;95473.75;5092070;28;20943;-65
2022/06/18 05:08:20;;;;;;;0.50;0.40;;;;;;;20.71;100.00;95387.88;5092016;28;20445;-65
2022/06/18 05:10:50;;;;;;;0.80;0.70;;;;;;;21.16;100.00;95483.06;5091957;28;20448;-65
2022/06/18 05:13:19;;;;;;;0.50;0.50;;;;;;;21.29;100.00;95484.66;5091811;28;20862;-65
2022/06/18 05:15:49;;;;;;;0.50;0.40;;;;;;;21.82;100.00;95491.88;5091842;28;20452;-65
2022/06/18 05:18:18;;;;;;;0.73;0.70;;;;;;;20.69;100.00;95326.28;5092282;28;20441;-64
2022/06/18 05:20:51;;;;;;;0.70;0.70;;;;;;;21.54;100.00;95447.75;5091733;28;20515;-65
2022/06/18 05:23:21;;;;;;;1.13;0.80;;;;;;;21.72;100.00;95483.41;5091864;28;20458;-64
2022/06/18 05:25:53;;;;;;;0.70;0.70;;;;;;;21.50;100.00;95442.22;5092901;28;20477;-65
2022/06/18 05:28:22;;;;;;;0.50;0.47;;;;;;;21.57;100.00;95417.41;5095804;28;20471;-65
2022/06/18 05:30:51;;;;;;;0.60;0.50;;;;;;;21.91;100.00;95459.38;5095872;28;20839;-64
2022/06/18 05:33:19;;;;;;;0.50;0.50;;;;;;;21.71;100.00;95438.66;5095849;28;20862;-65
2022/06/18 05:35:51;;;;;;;0.70;0.70;;;;;;;22.29;100.00;95486.06;5095728;28;20420;-65
2022/06/18 05:38:21;;;;;;;2.17;0.90;;;;;;;22.05;100.00;95420.16;5095183;28;21013;-65
2022/06/18 05:40:51;;;;;;;0.70;0.40;;;;;;;22.52;100.00;95482.53;5095911;28;20858;-65
2022/06/18 05:43:23;;;;;;;0.93;0.83;;;;;;;22.60;100.00;95478.13;5095726;28;20420;-65
2022/06/18 05:45:53;;;;;;;1.90;1.80;;;;;;;22.69;100.00;95474.19;5095622;28;20516;-64
2022/06/18 05:48:23;;;;;;;0.50;0.47;;;;;;;22.11;100.00;95393.72;5095366;28;20475;-65
2022/06/18 05:50:52;;;;;;;8.03;0.90;;;;;;;22.47;100.00;95481.97;5095472;28;20511;-65
2022/06/18 05:53:20;;;;;;;1.13;1.10;;;;;;;22.47;100.00;95461.16;5095465;28;20973;-65
2022/06/18 05:55:49;;;;;;;0.90;0.90;;;;;;;22.51;100.00;95472.06;5055026;28;20903;-65
2022/06/18 05:58:18;;;;;;;0.43;0.40;;;;;;;22.26;100.00;95482.13;5055089;28;20513;-65
2022/06/18 06:00:47;;;;;;;0.50;0.47;;;;;;;22.35;100.00;95484.69;5055346;28;20761;-64
2022/06/18 06:03:16;;;;;;;0.97;0.97;;;;;;;21.65;100.00;95494.75;5054928;28;20484;-64
2022/06/18 06:05:46;;;;;;;0.60;0.57;;;;;;;21.81;100.00;95497.56;5054605;28;20430;-64
2022/06/18 06:08:16;;;;;;;0.73;0.70;;;;;;;21.43;100.00;95481.66;5055147;28;20497;-64
2022/06/18 06:13:33;;;;;;;0.50;0.50;;;;;;;20.79;100.00;95475.91;5054731;28;20494;-64
2022/06/18 06:16:02;;;;;;;0.63;0.63;;;;;;;20.61;100.00;95442.94;5054700;28;20427;-64
2022/06/18 06:18:31;;;;;;;1.07;0.70;;;;;;;21.08;100.00;95429.22;5055019;28;20422;-64
2022/06/18 06:21:01;;;;;;;0.83;0.83;;;;;;;21.46;100.00;95481.78;5054609;28;20430;-64
2022/06/18 06:23:30;;;;;;;0.77;0.67;;;;;;;20.90;100.00;95485.16;5054531;28;20477;-64
2022/06/18 06:25:59;;;;;;;0.77;0.77;;;;;;;20.84;100.00;95446.88;5054491;28;20781;-64
2022/06/18 06:28:29;;;;;;;0.70;0.60;;;;;;;21.03;100.00;95448.25;5054295;28;20502;-64
2022/06/18 06:30:59;;;;;;;1.10;1.10;;;;;;;21.13;100.00;95489.09;5054759;28;20506;-64
2022/06/18 06:33:28;;;;;;;0.53;0.50;;;;;;;21.57;100.00;95486.75;5054698;28;20425;-64
2022/06/18 06:36:14;;;;;;;0.60;0.50;;;;;;;21.93;100.00;95444.47;5054295;28;20511;-59
2022/06/18 06:38:42;;;;;;;0.50;0.50;;;;;;;22.32;100.00;95474.56;5054832;28;20422;-59
2022/06/18 06:41:16;;;;;;;0.50;0.47;;;;;;;22.09;100.00;95469.63;5056041;28;20861;-59
2022/06/18 06:43:44;;;;;;;0.60;0.50;;;;;;;21.43;100.00;95466.28;5054647;28;20465;-59
2022/06/18 06:46:16;;;;;;;1.27;1.10;;;;;;;20.77;100.00;95328.06;5054390;28;20422;-59
2022/06/18 06:48:45;;;;;;;0.80;0.80;;;;;;;21.56;100.00;95466.28;5054336;28;20470;-60
2022/06/18 06:51:15;;;;;;;0.80;0.80;;;;;;;21.40;100.00;95375.25;5054313;28;20950;-59
2022/06/18 06:53:44;;;;;;;1.00;0.80;;;;;;;22.40;100.00;95471.75;5059552;28;20483;-59
2022/06/18 06:59:00;;;;;;;0.93;0.60;;;;;;;22.67;100.00;95465.63;5094257;28;20458;-60
2022/06/18 07:01:34;;;;;;;0.53;0.50;;;;;;;22.81;100.00;95464.47;5094735;28;20859;-60
2022/06/18 07:04:07;;;;;;;0.50;0.50;;;;;;;22.69;100.00;95459.91;5095915;28;20481;-58
2022/06/18 07:06:36;;;;;;;8.63;1.23;;;;;;;22.81;100.00;95459.06;5095502;28;20446;-59
2022/06/18 07:09:06;;;;;;;1.07;1.07;;;;;;;21.99;100.00;95369.41;5097143;28;20468;-59
2022/06/18 07:11:36;;;;;;;1.10;1.00;;;;;;;22.50;100.00;95455.06;5098096;28;20447;-58
2022/06/18 07:14:05;;;;;;;1.43;1.00;;;;;;;22.05;100.00;95416.66;5094827;28;20495;-59
2022/06/18 07:16:36;;;;;;;0.90;0.80;;;;;;;22.08;100.00;95427.59;5093735;28;20421;-58
2022/06/18 07:19:10;;;;;;;0.93;0.80;;;;;;;23.00;100.00;95462.69;5094786;28;20448;-59
2022/06/18 07:21:44;;;;;;;0.60;0.60;;;;;;;22.74;100.00;95455.03;5094657;28;20455;-62
2022/06/18 07:24:13;;;;;;;0.87;0.87;;;;;;;23.53;100.00;95452.56;5094793;28;20446;-59
2022/06/18 07:26:41;;;;;;;0.87;0.87;;;;;;;23.51;100.00;95460.22;5092742;28;20428;-59
2022/06/18 07:29:10;;;;;;;0.50;0.37;;;;;;;23.66;100.00;95445.91;5093947;28;20498;-59
2022/06/18 07:31:40;;;;;;;0.53;0.53;;;;;;;22.47;100.00;95422.53;5093739;28;20495;-59
2022/06/18 07:34:14;;;;;;;0.80;0.57;;;;;;;23.26;100.00;95454.94;5094000;28;20424;-60
2022/06/18 07:36:43;;;;;;;0.73;0.73;;;;;;;23.57;100.00;95454.22;5094453;28;20431;-60
2022/06/18 07:39:12;;;;;;;0.47;0.30;;;;;;;23.94;100.00;95443.91;5094090;28;20477;-60
2022/06/18 07:41:45;;;;;;;1.07;1.07;;;;;;;24.14;100.00;95448.28;5093313;28;20950;-60
2022/06/18 07:44:14;;;;;;;1.60;1.50;;;;;;;24.28;100.00;95445.13;5093906;28;20459;-60
2022/06/18 07:46:45;;;;;;;0.80;0.73;;;;;;;24.45;100.00;95455.56;5094808;28;20421;-60
2022/06/18 07:49:18;;;;;;;1.03;0.97;;;;;;;24.61;100.00;95453.63;5093698;28;20552;-60
2022/06/18 07:51:48;;;;;;;1.00;1.00;;;;;;;23.47;100.00;95284.31;5092922;28;20951;-61
2022/06/18 07:54:18;;;;;;;0.50;0.50;;;;;;;24.67;100.00;95397.97;5094414;28;20471;-61
2022/06/18 07:56:47;;;;;;;5.40;0.60;;;;;;;25.37;100.00;95446.63;5093462;28;20516;-62
2022/06/18 07:59:16;;;;;;;1.03;1.00;;;;;;;24.56;100.00;95441.13;5093395;28;20446;-62
2022/06/18 08:01:46;;;;;;;1.30;0.77;;;;;;;24.94;100.00;95451.25;5093416;28;20416;-62
2022/06/18 08:04:15;;;;;;;1.00;1.00;;;;;;;24.33;100.00;95451.06;5092374;28;20435;-62
2022/06/18 08:06:43;;;;;;;1.10;1.00;;;;;;;25.04;100.00;95453.38;5092694;28;20832;-61
2022/06/18 08:09:12;;;;;;;1.40;0.83;;;;;;;25.16;100.00;95390.84;5092348;28;20550;-63
2022/06/18 08:11:40;;;;;;;0.60;0.60;;;;;;;24.79;100.00;95449.38;5091807;28;20505;-63
2022/06/18 08:14:09;;;;;;;0.70;0.70;;;;;;;26.19;100.00;95449.63;5092325;28;20427;-64
2022/06/18 08:16:37;;;;;;;0.70;0.50;;;;;;;26.44;100.00;95440.69;5092799;28;20463;-63
2022/06/18 08:19:07;;;;;;;0.57;0.53;;;;;;;26.07;100.00;95438.91;5092535;28;20444;-62
2022/06/18 08:21:39;;;;;;;0.60;0.60;;;;;;;26.52;100.00;95429.91;5092653;28;20862;-62
2022/06/18 08:24:11;;;;;;;3.80;0.53;;;;;;;26.81;95.91;95423.72;5092243;28;20452;-62
2022/06/18 08:26:41;;;;;;;0.70;0.70;;;;;;;25.96;91.03;95387.16;5092264;28;20456;-63
2022/06/18 08:29:13;;;;;;;3.20;3.00;;;;;;;26.52;89.33;95429.91;5092064;28;20499;-63
2022/06/18 08:31:41;;;;;;;1.00;1.00;;;;;;;26.57;89.72;95427.66;5092031;28;20821;-61
2022/06/18 08:34:11;;;;;;;0.60;0.53;;;;;;;26.16;86.12;95337.00;5092055;28;20451;-59
2022/06/18 08:36:48;;;;;;;0.50;0.50;;;;;;;27.38;85.65;95393.25;5091572;28;20442;-60
2022/06/18 08:39:16;;;;;;;0.60;0.60;;;;;;;28.53;81.21;95427.31;5091645;28;20441;-59
2022/06/18 08:41:59;;;;;;;3.53;1.33;;;;;;;28.78;77.10;95422.78;5091600;28;20424;-59
2022/06/18 08:44:54;;;;;;;0.90;0.90;;;;;;;27.71;77.00;95428.59;5092399;28;20976;-59
2022/06/18 08:47:34;;;;;;;0.87;0.57;;;;;;;27.70;76.87;95382.69;5092138;28;20424;-59
2022/06/18 08:50:25;;;;;;;0.83;0.73;;;;;;;29.25;74.15;95429.22;5092422;28;20538;-59
2022/06/18 08:53:11;;;;;;;0.40;0.37;;;;;;;30.50;60.68;95413.31;5092121;28;20489;-59
2022/06/18 08:55:47;;;;;;;0.60;0.60;;;;;;;30.85;60.67;95420.66;5092214;28;20546;-58
2022/06/18 08:58:24;;;;;;;0.50;0.40;;;;;;;30.93;57.63;95410.47;5092135;28;20409;-59
2022/06/18 09:00:59;;;;;;;0.50;0.50;;;;;;;30.43;65.17;95396.16;5096962;28;20450;-59
2022/06/18 09:03:41;;;;;;;0.70;0.70;;;;;;;29.78;63.44;95410.25;5099213;28;20458;-59
2022/06/18 09:06:28;;;;;;;0.70;0.50;;;;;;;29.18;62.93;95423.72;5098972;28;20420;-59
2022/06/18 09:09:08;;;;;;;1.00;0.80;;;;;;;29.53;69.78;95416.41;5098250;28;20522;-59
2022/06/18 09:12:00;;;;;;;0.73;0.73;;;;;;;29.49;65.03;95417.59;5098244;28;20428;-59
2022/06/18 09:14:34;;;;;;;0.67;0.67;;;;;;;28.99;74.30;95366.72;5098901;28;20477;-59
2022/06/18 09:17:10;;;;;;;0.50;0.50;;;;;;;29.09;73.23;95421.34;5098537;28;20415;-60
2022/06/18 09:19:42;;;;;;;0.40;0.30;;;;;;;28.37;75.25;95418.63;5098516;28;20911;-58
2022/06/18 09:22:18;;;;;;;2.20;0.60;;;;;;;28.34;77.50;95413.94;5098521;28;20420;-60
2022/06/18 09:24:50;;;;;;;1.40;1.40;;;;;;;28.38;82.47;95414.75;5098564;28;20431;-59
2022/06/18 09:27:23;;;;;;;0.43;0.40;;;;;;;28.12;75.44;95412.22;5098985;28;20416;-59
2022/06/18 09:30:00;;;;;;;0.70;0.70;;;;;;;28.03;74.16;95411.78;5097969;28;20893;-60
2022/06/18 09:32:33;;;;;;;0.70;0.40;;;;;;;28.02;74.23;95407.47;5098338;28;20454;-60
2022/06/18 09:35:07;;;;;;;0.60;0.60;;;;;;;28.44;69.67;95405.03;5098399;28;20485;-60
2022/06/18 09:37:42;;;;;;;2.00;1.20;;;;;;;28.02;61.62;95410.22;5098681;28;20975;-60
2022/06/18 09:40:17;;;;;;;0.50;0.50;;;;;;;28.32;64.95;95387.06;5098319;28;20426;-60
2022/06/18 09:42:50;;;;;;;0.87;0.83;;;;;;;27.14;71.99;95352.19;5098376;28;20480;-60
2022/06/18 09:45:23;;;;;;;0.40;0.40;;;;;;;27.74;77.80;95402.56;5098350;28;20412;-60
2022/06/18 09:47:52;;;;;;;0.40;0.30;;;;;;;27.97;71.51;95408.59;5098335;28;20412;-60
2022/06/18 09:50:26;;;;;;;1.23;0.67;;;;;;;27.75;79.25;95403.34;5098257;28;20495;-60
2022/06/18 09:53:03;;;;;;;0.60;0.47;;;;;;;28.05;74.41;95414.91;5097170;28;20520;-59
2022/06/18 09:55:39;;;;;;;0.73;0.43;;;;;;;28.08;75.05;95390.38;5098406;28;20543;-59
2022/06/18 09:58:14;;;;;;;0.50;0.43;;;;;;;27.62;66.02;95351.91;5098354;28;20526;-59
2022/06/18 10:00:45;;;;;;;0.40;0.30;;;;;;;28.02;66.86;95402.03;5097981;28;20849;-59
2022/06/18 10:06:52;;;;;;;0.43;0.37;;;;;;;27.88;67.08;95404.63;5098508;28;20431;-59
2022/06/18 10:09:10;;;;;;;0.67;0.40;;;;;;;27.93;69.71;95336.94;5097851;28;20540;-59
2022/06/18 10:11:41;;;;;;;0.50;0.40;;;;;;;28.69;58.40;95395.06;5096217;28;20449;-59
2022/06/18 10:14:15;;;;;;;0.70;0.70;;;;;;;28.28;67.48;95378.06;5094881;28;20447;-59
2022/06/18 10:16:57;;;;;;;0.63;0.40;;;;;;;29.03;64.35;95379.22;5095187;28;20844;-59
2022/06/18 10:19:33;;;;;;;0.40;0.40;;;;;;;29.80;57.94;95367.69;5094829;28;20508;-59
2022/06/18 10:22:10;;;;;;;0.60;0.60;;;;;;;30.91;49.55;95363.56;5095160;28;20516;-59
2022/06/18 10:24:48;;;;;;;0.40;0.30;;;;;;;31.92;43.03;95351.16;5095012;28;20420;-59
2022/06/18 10:27:26;;;;;;;0.50;0.40;;;;;;;32.30;44.42;95353.97;5094208;28;20423;-59
2022/06/18 10:30:05;;;;;;;0.60;0.60;;;;;;;31.64;47.51;95353.34;5094522;28;21006;-59
2022/06/18 10:32:48;;;;;;;0.50;0.50;;;;;;;31.12;47.95;95352.50;5094779;28;20819;-59
2022/06/18 10:35:28;;;;;;;0.97;0.50;;;;;;;30.76;50.32;95362.81;5094817;28;20879;-59
2022/06/18 10:38:12;;;;;;;0.50;0.50;;;;;;;30.66;57.12;95363.66;5094431;28;20455;-59
2022/06/18 10:40:48;;;;;;;0.53;0.50;;;;;;;30.74;47.93;95367.91;5094369;28;20503;-59
2022/06/18 10:43:28;;;;;;;0.47;0.40;;;;;;;31.43;47.67;95362.47;5093851;28;20473;-59
2022/06/18 10:46:01;;;;;;;0.83;0.60;;;;;;;31.54;46.92;95357.75;5094096;28;20423;-59
2022/06/18 10:48:31;;;;;;;0.40;0.30;;;;;;;31.57;44.05;95353.41;5093919;28;20506;-59
2022/06/18 10:51:02;;;;;;;0.50;0.43;;;;;;;31.89;44.64;95359.41;5094062;28;20502;-59
2022/06/18 10:53:35;;;;;;;0.60;0.60;;;;;;;30.90;47.34;95349.09;5093859;28;20459;-59
2022/06/18 10:56:13;;;;;;;0.40;0.40;;;;;;;30.83;48.12;95357.31;5094338;28;20453;-59
2022/06/18 10:58:49;;;;;;;0.50;0.40;;;;;;;30.98;52.45;95352.56;5094213;28;20523;-59
2022/06/18 11:01:20;;;;;;;0.40;0.40;;;;;;;31.19;48.94;95342.31;5094025;28;20506;-59
2022/06/18 11:03:58;;;;;;;0.40;0.40;;;;;;;31.48;44.54;95340.16;5093986;28;20891;-58
2022/06/18 11:06:27;;;;;;;0.60;0.60;;;;;;;31.28;41.84;95333.63;5093794;28;20514;-59
2022/06/18 11:08:58;;;;;;;0.57;0.50;;;;;;;31.49;41.60;95299.84;5093641;28;20424;-59
2022/06/18 11:11:31;;;;;;;4.47;0.40;;;;;;;32.54;39.87;95323.53;5093744;28;20455;-58
2022/06/18 11:14:14;;;;;;;0.40;0.40;;;;;;;31.86;40.71;95313.63;5094122;28;20506;-59
2022/06/18 11:16:54;;;;;;;0.40;0.40;;;;;;;31.60;43.11;95289.59;5093905;28;20444;-59
2022/06/18 11:19:29;;;;;;;0.57;0.57;;;;;;;31.25;42.78;95305.06;5093477;28;20934;-59
2022/06/18 11:22:09;;;;;;;0.50;0.50;;;;;;;31.12;42.91;95306.72;5093672;28;20506;-59
2022/06/18 11:24:38;;;;;;;1.00;0.90;;;;;;;30.84;43.08;95295.91;5091726;28;20459;-59
2022/06/18 11:27:15;;;;;;;0.57;0.57;;;;;;;31.19;45.80;95301.22;5094889;28;20415;-58
2022/06/18 11:29:49;;;;;;;1.10;1.10;;;;;;;30.33;46.49;95287.53;5093686;28;20484;-59
2022/06/18 11:32:23;;;;;;;0.47;0.40;;;;;;;28.71;51.31;95313.66;5093433;28;20477;-59
2022/06/18 11:35:03;;;;;;;0.40;0.37;;;;;;;29.35;52.57;95317.28;5093767;28;20455;-59
2022/06/18 11:37:32;;;;;;;0.67;0.67;;;;;;;29.09;51.53;95311.38;5093010;28;20455;-59
2022/06/18 11:40:18;;;;;;;0.60;0.50;;;;;;;29.48;53.47;95320.41;5093565;28;20951;-59
2022/06/18 11:43:08;;;;;;;0.53;0.40;;;;;;;28.53;52.64;95280.03;5093744;28;20514;-59
2022/06/18 11:45:53;;;;;;;0.40;0.30;;;;;;;28.85;55.52;95323.81;5093175;28;20904;-59
2022/06/18 11:48:31;;;;;;;0.40;0.40;;;;;;;28.32;58.38;95294.38;5093015;28;20456;-59
2022/06/18 11:51:08;;;;;;;0.60;0.40;;;;;;;28.84;57.83;95325.75;5093249;28;20495;-58
2022/06/18 11:53:45;;;;;;;0.57;0.53;;;;;;;28.41;63.99;95329.47;5092770;28;20966;-58
2022/06/18 11:56:26;;;;;;;0.50;0.40;;;;;;;28.40;60.47;95319.72;5092812;28;20864;-59
2022/06/18 11:59:20;;;;;;;0.40;0.30;;;;;;;27.37;66.69;95329.09;5092773;28;20544;-60
2022/06/18 12:01:54;;;;;;;0.97;0.77;;;;;;;26.60;83.25;95320.09;5093147;28;20444;-55
2022/06/18 12:04:28;;;;;;;0.60;0.60;;;;;;;26.86;93.41;95325.47;5092779;28;20507;-55
2022/06/18 12:07:04;;;;;;;0.60;0.50;;;;;;;25.91;84.69;95321.50;5092720;28;20415;-54
2022/06/18 12:09:33;;;;;;;0.70;0.40;;;;;;;26.17;85.54;95322.28;5092633;28;20865;-54
2022/06/18 12:12:13;;;;;;;0.73;0.53;;;;;;;26.09;78.11;95323.31;5092599;28;20511;-54